createdAt,value
2022-12-03T00:00:25.099Z,11.2
2022-12-03T00:05:25.098Z,12.5
2022-12-03T00:10:25.095Z,11.8
2022-12-03T00:15:25.107Z,12.8
2022-12-03T00:20:25.104Z,9.2
2022-12-03T00:25:25.100Z,9.5
2022-12-03T00:30:25.091Z,8.7
2022-12-03T00:35:25.095Z,9.9
2022-12-03T00:40:25.090Z,11.7
2022-12-03T00:45:25.105Z,10.5
2022-12-03T00:50:25.089Z,9.4
2022-12-03T00:55:25.107Z,12.3
2022-12-03T01:00:25.115Z,10.8
2022-12-03T01:05:25.099Z,11.1
2022-12-03T01:10:25.088Z,11.3
2022-12-03T01:15:25.091Z,9.7
2022-12-03T01:20:25.094Z,9.7
2022-12-03T01:25:25.101Z,9.2
2022-12-03T01:30:25.090Z,9.2
2022-12-03T01:35:25.117Z,11.1
2022-12-03T01:40:25.094Z,11.1
2022-12-03T01:45:25.109Z,9.9
2022-12-03T01:50:25.107Z,13.4
2022-12-03T01:55:25.117Z,13.3
2022-12-03T02:00:25.096Z,11.2
2022-12-03T02:05:25.111Z,10.8
2022-12-03T02:10:25.093Z,12.1
2022-12-03T02:15:25.108Z,13.9
2022-12-03T02:20:25.097Z,12.4
2022-12-03T02:25:25.096Z,12
2022-12-03T02:30:25.102Z,12.3
2022-12-03T02:35:25.114Z,14.5
2022-12-03T02:40:25.089Z,9.2
2022-12-03T02:45:25.103Z,8.7
2022-12-03T02:50:25.108Z,11.4
2022-12-03T02:55:25.112Z,12
2022-12-03T03:00:25.106Z,10.6
2022-12-03T03:05:25.106Z,9.3
2022-12-03T03:10:25.100Z,8.2
2022-12-03T03:15:25.102Z,11.5
2022-12-03T03:20:25.103Z,8.6
2022-12-03T03:25:25.098Z,10.9
2022-12-03T03:30:25.122Z,9.1
2022-12-03T03:35:25.122Z,10.3
2022-12-03T03:40:25.126Z,8.3
2022-12-03T03:45:28.965Z,11.4
2022-12-03T03:50:25.094Z,11.4
2022-12-03T03:55:25.118Z,9
2022-12-03T04:00:25.103Z,11.5
2022-12-03T04:05:25.115Z,11.1
2022-12-03T04:10:25.103Z,9.2
2022-12-03T04:15:25.105Z,10.9
2022-12-03T04:20:25.096Z,9.6
2022-12-03T04:25:25.120Z,10.9
2022-12-03T04:30:25.110Z,11.2
2022-12-03T04:35:25.128Z,10.7
2022-12-03T04:40:25.097Z,10.7
2022-12-03T04:45:25.101Z,10.5
2022-12-03T04:50:25.107Z,10.5
2022-12-03T04:55:25.098Z,10.7
2022-12-03T05:00:25.087Z,10.7
2022-12-03T05:05:25.094Z,10
2022-12-03T05:10:25.090Z,10.7
2022-12-03T05:15:25.098Z,9.8
2022-12-03T05:20:25.090Z,8.9
2022-12-03T05:25:25.104Z,11.9
2022-12-03T05:30:25.149Z,11.3
2022-12-03T05:35:25.095Z,15.3
2022-12-03T05:40:25.096Z,12.7
2022-12-03T05:45:25.091Z,10.3
2022-12-03T05:50:25.096Z,10.3
2022-12-03T05:55:25.094Z,14.7
2022-12-03T06:00:25.096Z,9.4
2022-12-03T06:05:25.097Z,10.1
2022-12-03T06:10:25.095Z,11.4
2022-12-03T06:15:25.093Z,13
2022-12-03T06:20:25.090Z,12.5
2022-12-03T06:25:25.096Z,10.3
2022-12-03T06:30:25.093Z,10.4
2022-12-03T06:35:25.097Z,13
2022-12-03T06:40:25.093Z,14.4
2022-12-03T06:45:25.100Z,11.1
2022-12-03T06:50:25.098Z,11
2022-12-03T06:55:25.099Z,11.2
2022-12-03T07:00:25.095Z,13.2
2022-12-03T07:05:25.103Z,13.9
2022-12-03T07:10:25.091Z,12.4
2022-12-03T07:15:25.099Z,9.2
2022-12-03T07:20:25.099Z,9
2022-12-03T07:25:25.110Z,8.8
2022-12-03T07:30:25.101Z,10.6
2022-12-03T07:35:25.105Z,8.7
2022-12-03T07:40:25.091Z,10.5
2022-12-03T07:45:25.091Z,11
2022-12-03T07:50:25.099Z,8.6
2022-12-03T07:55:25.108Z,10.2
2022-12-03T08:00:25.099Z,10.2
2022-12-03T08:05:25.093Z,10
2022-12-03T08:10:25.094Z,11.4
2022-12-03T08:15:25.098Z,9
2022-12-03T08:20:25.161Z,9.3
2022-12-03T08:25:25.115Z,9.3
2022-12-03T08:30:25.271Z,10.7
2022-12-03T08:35:25.095Z,9.4
2022-12-03T08:40:25.148Z,11.4
2022-12-03T08:45:25.174Z,9
2022-12-03T08:50:25.172Z,9.6
2022-12-03T08:55:25.093Z,10.1
2022-12-03T09:00:25.095Z,9.9
2022-12-03T09:05:25.108Z,8.5
2022-12-03T09:10:25.090Z,9.7
2022-12-03T09:15:25.101Z,10.3
2022-12-03T09:20:25.111Z,12.4
2022-12-03T09:25:25.095Z,12.1
2022-12-03T09:30:25.092Z,10.3
2022-12-03T09:35:25.099Z,13
2022-12-03T09:40:25.108Z,12
2022-12-03T09:45:25.098Z,14
2022-12-03T09:50:25.108Z,11.3
2022-12-03T09:55:25.105Z,8.3
2022-12-03T10:00:25.100Z,9.7
2022-12-03T10:05:25.111Z,13.8
2022-12-03T10:10:25.095Z,10.2
2022-12-03T10:15:25.097Z,9.2
2022-12-03T10:20:25.096Z,9.2
2022-12-03T10:25:25.091Z,11.3
2022-12-03T10:30:25.213Z,13
2022-12-03T10:35:25.100Z,13
2022-12-03T10:40:25.099Z,12.7
2022-12-03T10:45:25.106Z,16.2
2022-12-03T10:50:25.103Z,9.1
2022-12-03T10:55:25.121Z,10.1
2022-12-03T11:00:25.108Z,12.7
2022-12-03T11:05:25.105Z,13.7
2022-12-03T11:10:25.102Z,14.1
2022-12-03T11:15:25.095Z,10
2022-12-03T11:20:25.100Z,11.7
2022-12-03T11:25:25.107Z,10.9
2022-12-03T11:30:25.104Z,10.1
2022-12-03T11:35:25.100Z,13
2022-12-03T11:40:25.090Z,13.4
2022-12-03T11:45:25.094Z,13.6
2022-12-03T11:50:25.089Z,15.5
2022-12-03T11:55:25.099Z,14
2022-12-03T12:00:25.170Z,15.9
2022-12-03T12:05:25.107Z,14.8
2022-12-03T12:10:25.091Z,14.3
2022-12-03T12:15:25.111Z,14.3
2022-12-03T12:20:25.092Z,11.3
2022-12-03T12:25:25.101Z,10.7
2022-12-03T12:30:25.094Z,15.1
2022-12-03T12:35:25.100Z,16.6
2022-12-03T12:40:25.095Z,16.5
2022-12-03T12:45:25.111Z,16.1
2022-12-03T12:50:25.098Z,12.4
2022-12-03T12:55:25.109Z,14.1
2022-12-03T13:00:25.092Z,15.3
2022-12-03T13:05:25.097Z,16.4
2022-12-03T13:10:25.099Z,12.8
2022-12-03T13:15:25.102Z,12.2
2022-12-03T13:20:25.103Z,13.3
2022-12-03T13:25:50.432Z,13.2
2022-12-03T13:30:25.092Z,12.7
2022-12-03T13:35:25.102Z,15.5
2022-12-03T13:40:25.110Z,15.4
2022-12-03T13:45:25.099Z,14.4
2022-12-03T13:50:25.100Z,13.7
2022-12-03T13:55:25.095Z,13.2
2022-12-03T14:00:25.127Z,18.2
2022-12-03T14:05:25.097Z,14.5
2022-12-03T14:10:25.091Z,14.5
2022-12-03T14:15:25.097Z,13.7
2022-12-03T14:20:25.098Z,16.5
2022-12-03T14:25:25.102Z,17.2
2022-12-03T14:30:25.092Z,17
2022-12-03T14:35:25.093Z,17
2022-12-03T14:40:25.102Z,14.9
2022-12-03T14:45:25.194Z,17.3
2022-12-03T14:50:25.089Z,17.6
2022-12-03T14:55:25.097Z,15.5
2022-12-03T15:00:25.094Z,15.8
2022-12-03T15:05:28.715Z,15.1
2022-12-03T15:10:25.099Z,15.6
2022-12-03T15:15:25.098Z,17.2
2022-12-03T15:20:25.096Z,17.2
2022-12-03T15:25:25.105Z,17.3
2022-12-03T15:30:25.099Z,16.2
2022-12-03T15:35:25.106Z,14.9
2022-12-03T15:40:25.084Z,14
2022-12-03T15:45:25.106Z,16.1
2022-12-03T15:50:25.223Z,16.9
2022-12-03T15:55:25.112Z,20
2022-12-03T16:00:25.095Z,16.7
2022-12-03T16:05:25.156Z,17.1
2022-12-03T16:10:25.100Z,15.8
2022-12-03T16:15:27.127Z,16.4
2022-12-03T16:20:25.095Z,16.4
2022-12-03T16:25:25.092Z,17.7
2022-12-03T16:30:25.092Z,17.1
2022-12-03T16:35:25.107Z,18.4
2022-12-03T16:40:25.093Z,19.9
2022-12-03T16:45:25.104Z,15.8
2022-12-03T16:50:29.754Z,19.5
2022-12-03T16:55:25.114Z,17.4
2022-12-03T17:00:25.094Z,16.7
2022-12-03T17:05:25.113Z,17
2022-12-03T17:10:25.135Z,19.3
2022-12-03T17:15:25.099Z,16.7
2022-12-03T17:20:25.103Z,15
2022-12-03T17:25:25.095Z,14.2
2022-12-03T17:30:25.099Z,19.3
2022-12-03T17:35:25.098Z,15.9
2022-12-03T17:40:25.092Z,21.8
2022-12-03T17:45:25.099Z,19.4
2022-12-03T17:50:25.097Z,17.4
2022-12-03T17:55:33.743Z,19.1
2022-12-03T18:00:25.099Z,18.9
2022-12-03T18:05:25.100Z,16.7
2022-12-03T18:10:25.091Z,16.2
2022-12-03T18:15:25.097Z,17.7
2022-12-03T18:20:25.101Z,13.4
2022-12-03T18:25:25.100Z,11.8
2022-12-03T18:30:25.097Z,15.1
2022-12-03T18:35:25.096Z,16.3
2022-12-03T18:40:25.092Z,13.3
2022-12-03T18:45:25.103Z,18.9
2022-12-03T18:50:25.102Z,18.9
2022-12-03T18:55:25.108Z,17
2022-12-03T19:00:25.123Z,13.4
2022-12-03T19:05:25.108Z,12.8
2022-12-03T19:10:25.093Z,14.4
2022-12-03T19:15:25.107Z,16.8
2022-12-03T19:20:25.109Z,17.2
2022-12-03T19:25:25.096Z,14
2022-12-03T19:30:25.095Z,19.4
2022-12-03T19:35:25.113Z,21.5
2022-12-03T19:40:25.100Z,19.1
2022-12-03T19:45:25.177Z,21.4
2022-12-03T19:50:25.099Z,21.1
2022-12-03T19:55:25.095Z,14.9
2022-12-03T20:00:25.089Z,11.7
2022-12-03T20:05:27.841Z,16.7
2022-12-03T20:10:25.102Z,15.4
2022-12-03T20:15:25.102Z,17.4
2022-12-03T20:20:25.088Z,17.7
2022-12-03T20:25:25.101Z,15.8
2022-12-03T20:30:25.095Z,15.7
2022-12-03T20:35:25.101Z,16.9
2022-12-03T20:40:25.111Z,14.4
2022-12-03T20:45:25.104Z,16
2022-12-03T20:50:25.098Z,11.9
2022-12-03T20:55:25.115Z,13
2022-12-03T21:00:25.098Z,16.3
2022-12-03T21:05:25.134Z,18.9
2022-12-03T21:10:25.095Z,15.9
2022-12-03T21:15:25.114Z,15.9
2022-12-03T21:20:25.095Z,16.6
2022-12-03T21:25:25.119Z,16.6
2022-12-03T21:30:25.216Z,19.8
2022-12-03T21:35:25.100Z,19.8
2022-12-03T21:40:25.136Z,14.9
2022-12-03T21:45:25.131Z,20.6
2022-12-03T21:50:25.095Z,18
2022-12-03T21:55:25.097Z,19.5
2022-12-03T22:00:25.093Z,15.6
2022-12-03T22:05:25.101Z,19
2022-12-03T22:10:25.100Z,15.9
2022-12-03T22:15:25.098Z,17.3
2022-12-03T22:20:25.097Z,18
2022-12-03T22:25:25.106Z,23.5
2022-12-03T22:30:25.089Z,14.3
2022-12-03T22:35:25.093Z,18.1
2022-12-03T22:40:25.114Z,17.5
2022-12-03T22:45:25.102Z,12.4
2022-12-03T22:50:25.095Z,13.2
2022-12-03T22:55:25.125Z,15.4
2022-12-03T23:00:25.099Z,18
2022-12-03T23:05:25.098Z,12
2022-12-03T23:10:27.397Z,14.8
2022-12-03T23:15:25.098Z,14.9
2022-12-03T23:20:25.096Z,15.4
2022-12-03T23:25:25.102Z,14.6
2022-12-03T23:30:25.098Z,15.1
2022-12-03T23:35:25.097Z,19.3
2022-12-03T23:40:25.094Z,16.6
2022-12-03T23:45:25.104Z,17.9
2022-12-03T23:50:25.099Z,17.6
2022-12-03T23:55:25.095Z,14.6
